New Portland, Maine
Current Conditions -  °F | °C
As of 7:35 AM on Sunday 21 Dec 2014 (Local Time) from KWVL Reporting Station
Overcast Overcast  
Wind Chill: 10°   Ceiling: 900
Heat Index: 19°   Visibility: 10mi
Dew Point: 14°   Wind: 7mph
Humidity: 80%   Direction: 340°NNW
Pressure: 30.31"   Gusts: NA
Location:  44.88°N, 70.1°W
Report Text: KWVL 211235Z 34006KT 10SM OVC009 M07/M10 A3031 RMK AO1
Loading
Personal Weather Stations






























Interactive Weather Map New forecast layout! Learn more

10-Day Weather Forecast

Advertisements
Track Severe Weather on mobile